Apua metar:in tulkitsemisessa.

(1/1)

macklin:
Moro!

Yksinkertaisesti mitä tarkoittaa kirjain P RMK jälkeen ja samoin kirjain E jos se on P:n tilalla allaolevassa metarissa?

LSZR 021850Z VRB02KT 9999 SCT040 BKN090 M02/M08 Q1021 NOSIG RMK P

jukka

sami:
Ei tarkoita mitään järkevää, tai mitään mitä olisin itse koskaan nähnyt.. Varmaan mennyt viesti poikki tuossa tms.

sparris:
Ratsastetaan vanhalla aiheella... jänskän näköistä keliä Vantaalla. Tuossa METARissa jäi askarruttamaan QNH:n jälkeen tulevat nummerot. Jotain tekemistä niillä kai on kiitotien lumipeitteen ja kitkan kanssa, mutta mitä ne tarkalleen ottaen meinaavat? Pikainen kvg ei viisautta tuonut...

Quote from: METAR

EFHK 130950Z VRB02KT 0400 R04R/1500D R15/0900N R22L/0650N R04L/1000U FZFG OVC001 M04/M05 Q1023 04520195 54550195 TEMPO 0300

jounipyh:
Quote

Ratsastetaan vanhalla aiheella... jänskän näköistä keliä Vantaalla. Tuossa METARissa jäi askarruttamaan QNH:n jälkeen tulevat nummerot. Jotain tekemistä niillä kai on kiitotien lumipeitteen ja kitkan kanssa, mutta mitä ne tarkalleen ottaen meinaavat? Pikainen kvg ei viisautta tuonut...




http://vacc.fi/tutorials/useful/wx/ tuolta löytyy ainakin ohjeet tulkitsemiseen

04 = 04L
5 = märkää lunta
2 = esiintymän laajuus 11-25%
01 = esiintymän syvyys 1mm
95 = kitkakerroin hyvä

54 = 04R
5 = märkää lunta
5 = esiintymän laajuus 26-50%
01 = esiintymän syvyys 1mm
95 = kitkakerroin hyvä

sparris:
Quote

http://vacc.fi/tutorials/useful/wx/ tuolta löytyy ainakin ohjeet tulkitsemiseen



Kiitos kaunis. Jotain tuonsuuntaista uumoilinkin, mutta en onnistunut löytämään täsmällistä "syntaksia" mistään muutamalla lontoonkielisellä hakusanalla. Ei olisi pitänyt yrittää lähteä merta edemmäs kalaan...  Onneksi täällä on fiksuja ihmisiä 

Navigation

Up one level